Terminal Aerodrome Forecast
Issued by NWS

Home | Current Version | Previous Version | Text Only | Print | Product List | Glossary On
Versions: 1 2 3 4 5 6 7 8 9 10 11 12 13 14 15 16 17 18
145
FTUS46 KSEW 112320
TAFOLM
TAF
KOLM 112320Z 1200/1224 19006KT P6SM SCT250
     FM120300 00000KT 5SM BR BKN200
     FM121200 00000KT 1/2SM FZFG BKN001 BKN080
     FM121500 00000KT 3SM BR OVC045=

USA.gov is the U.S. government's official web portal to all federal, state and local government web resources and services.